Time;durP1;ratioP1;P1;durP2;ratioP2;P2;SDS_P1;SDS_P2;PMS_P1;PMS_P2;Temp;Humidity;BMP_temperature;BMP_pressure;BME280_temperature;BME280_humidity;BME280_pressure;Samples;Min_cycle;Max_cycle;Signal;HPM_P1;HPM_P2
2021/06/01 00:02:12;;;;;;;12.80;9.70;;;8.20;91.60;;;;;;5005187;28;20239;-83
2021/06/01 00:04:40;;;;;;;16.73;10.07;;;8.10;91.70;;;;;;5007751;28;20207;-82
2021/06/01 00:07:08;;;;;;;16.33;10.50;;;8.10;92.00;;;;;;5006446;28;20579;-84
2021/06/01 00:09:36;;;;;;;14.83;10.40;;;8.10;92.10;;;;;;5006327;28;21213;-82
2021/06/01 00:12:05;;;;;;;12.77;9.50;;;8.30;92.30;;;;;;5008801;28;21579;-82
2021/06/01 00:14:35;;;;;;;16.33;9.93;;;8.20;92.40;;;;;;5011839;28;20211;-83
2021/06/01 00:17:04;;;;;;;15.83;10.10;;;8.20;92.40;;;;;;5013628;28;20601;-82
2021/06/01 00:19:32;;;;;;;15.17;10.27;;;8.30;92.40;;;;;;5010034;28;20198;-83
2021/06/01 00:22:00;;;;;;;13.50;10.30;;;8.30;92.60;;;;;;5005461;28;20250;-83
2021/06/01 00:24:28;;;;;;;11.97;9.43;;;8.30;92.70;;;;;;5011590;28;20193;-82
2021/06/01 00:26:56;;;;;;;16.13;10.40;;;8.30;92.90;;;;;;5005495;28;20203;-83
2021/06/01 00:29:24;;;;;;;16.63;10.00;;;8.50;92.90;;;;;;5008064;28;20678;-83
2021/06/01 00:31:54;;;;;;;15.57;10.03;;;8.30;93.00;;;;;;5023534;28;20470;-82
2021/06/01 00:34:22;;;;;;;15.50;10.03;;;8.20;93.00;;;;;;5010991;28;20959;-81
2021/06/01 00:36:50;;;;;;;15.07;10.60;;;8.20;93.10;;;;;;5004158;28;20579;-81
2021/06/01 00:39:18;;;;;;;13.33;10.30;;;8.20;93.20;;;;;;5008422;28;20674;-82
2021/06/01 00:41:46;;;;;;;17.63;10.73;;;8.10;93.30;;;;;;5004819;28;20555;-83
2021/06/01 00:44:14;;;;;;;13.60;10.70;;;8.10;93.60;;;;;;5009135;28;20203;-81
2021/06/01 00:46:42;;;;;;;15.23;10.47;;;8.00;93.60;;;;;;5015905;28;20195;-84
2021/06/01 00:49:12;;;;;;;12.60;9.90;;;8.10;93.70;;;;;;5010333;28;20254;-83
2021/06/01 00:51:40;;;;;;;16.23;10.73;;;7.90;93.90;;;;;;5005012;28;20220;-85
2021/06/01 00:54:08;;;;;;;13.43;10.10;;;7.80;94.20;;;;;;5012022;28;20207;-82
2021/06/01 00:56:37;;;;;;;16.03;10.23;;;7.80;94.30;;;;;;5011163;28;20212;-83
2021/06/01 00:59:05;;;;;;;14.53;10.03;;;7.80;94.80;;;;;;5009242;28;20208;-82
2021/06/01 01:01:33;;;;;;;13.17;10.30;;;7.80;95.10;;;;;;5010289;28;20808;-82
2021/06/01 01:04:02;;;;;;;13.80;10.20;;;7.80;95.00;;;;;;5007323;28;20556;-81
2021/06/01 01:06:52;;;;;;;14.43;9.43;;;7.80;95.70;;;;;;5006895;28;20490;-82
2021/06/01 01:09:21;;;;;;;12.73;9.57;;;7.80;95.70;;;;;;5007135;28;20691;-82
2021/06/01 01:11:56;;;;;;;12.87;10.10;;;7.90;95.80;;;;;;5007436;28;20374;-84
2021/06/01 01:14:28;;;;;;;12.30;9.63;;;7.90;95.50;;;;;;5007207;28;20256;-81
2021/06/01 01:16:59;;;;;;;14.63;10.30;;;7.80;95.50;;;;;;5005905;28;20203;-82
2021/06/01 01:20:15;;;;;;;13.93;10.13;;;7.70;95.40;;;;;;5005802;28;20312;-82
2021/06/01 01:22:48;;;;;;;16.50;10.33;;;7.60;95.60;;;;;;4936556;28;20909;-83
2021/06/01 01:25:20;;;;;;;15.20;10.07;;;7.60;95.70;;;;;;4997803;28;20340;-82
2021/06/01 01:28:05;;;;;;;14.93;10.27;;;7.70;95.70;;;;;;5005717;28;20223;-84
2021/06/01 01:30:42;;;;;;;17.43;9.83;;;7.40;96.00;;;;;;5012678;28;20278;-82
2021/06/01 01:33:24;;;;;;;15.07;10.37;;;7.30;96.50;;;;;;5009546;28;20203;-82
2021/06/01 01:35:56;;;;;;;16.23;10.10;;;7.30;96.70;;;;;;4995400;28;20203;-82
2021/06/01 01:38:25;;;;;;;12.30;10.10;;;7.30;97.50;;;;;;5010612;28;20204;-83
2021/06/01 01:40:54;;;;;;;15.37;10.30;;;7.30;97.40;;;;;;5005604;28;20581;-81
2021/06/01 01:43:25;;;;;;;15.43;10.67;;;7.40;97.60;;;;;;5001948;28;20254;-81
2021/06/01 01:46:04;;;;;;;14.67;10.80;;;7.40;97.60;;;;;;5011343;28;20261;-82
2021/06/01 01:51:20;;;;;;;18.00;10.23;;;7.40;98.80;;;;;;5010279;28;20262;-84
2021/06/01 01:53:51;;;;;;;15.43;10.87;;;7.60;98.10;;;;;;5017569;28;20203;-82
2021/06/01 01:56:21;;;;;;;13.70;9.60;;;7.70;98.20;;;;;;5019425;28;20200;-80
2021/06/01 01:58:52;;;;;;;15.60;10.43;;;7.90;97.30;;;;;;5010063;28;20593;-83
2021/06/01 02:01:24;;;;;;;14.27;10.00;;;7.90;97.20;;;;;;5010775;28;20191;-83
2021/06/01 02:03:55;;;;;;;14.83;9.93;;;8.00;97.20;;;;;;5008886;28;20207;-81
2021/06/01 02:06:22;;;;;;;12.93;9.60;;;8.10;97.00;;;;;;5020289;28;20432;-81
2021/06/01 02:08:51;;;;;;;13.53;9.87;;;8.20;96.60;;;;;;5000953;28;20443;-84
2021/06/01 02:11:20;;;;;;;12.87;9.20;;;8.30;95.60;;;;;;5009220;28;20448;-82
2021/06/01 02:13:53;;;;;;;12.87;9.00;;;8.40;95.60;;;;;;5002342;28;20282;-82
2021/06/01 02:16:22;;;;;;;13.47;10.13;;;8.50;95.60;;;;;;5005752;28;20207;-82
2021/06/01 02:18:50;;;;;;;15.17;9.60;;;8.50;95.10;;;;;;5003331;28;20430;-82
2021/06/01 02:21:33;;;;;;;14.57;10.23;;;8.50;95.30;;;;;;5027004;28;20222;-82
2021/06/01 02:24:04;;;;;;;14.63;9.93;;;8.60;95.20;;;;;;4999097;28;20197;-81
2021/06/01 02:26:42;;;;;;;16.93;10.27;;;8.60;95.20;;;;;;5002429;28;20233;-81
2021/06/01 02:29:18;;;;;;;14.27;9.73;;;8.60;95.50;;;;;;5003305;28;20241;-81
2021/06/01 02:31:47;;;;;;;14.73;9.50;;;8.60;95.40;;;;;;4994109;28;20207;-83
2021/06/01 02:34:16;;;;;;;15.63;9.60;;;8.60;95.50;;;;;;4996563;28;20216;-81
2021/06/01 02:36:46;;;;;;;15.63;10.33;;;8.50;95.40;;;;;;5000231;28;20608;-82
2021/06/01 02:39:16;;;;;;;13.47;10.63;;;8.60;95.50;;;;;;4998890;28;20531;-82
2021/06/01 02:41:45;;;;;;;16.03;9.50;;;8.60;95.20;;;;;;4998588;28;20215;-81
2021/06/01 02:44:13;;;;;;;16.93;10.07;;;8.60;95.30;;;;;;4997799;28;20301;-81
2021/06/01 02:46:42;;;;;;;17.20;10.30;;;8.60;95.20;;;;;;5003454;28;20213;-83
2021/06/01 02:49:10;;;;;;;13.90;9.73;;;8.70;95.40;;;;;;4998843;28;20254;-82
2021/06/01 02:51:38;;;;;;;16.07;9.93;;;8.70;95.10;;;;;;4999132;28;20724;-82
2021/06/01 02:54:08;;;;;;;14.50;10.47;;;8.80;95.00;;;;;;5007531;28;20202;-82
2021/06/01 02:56:37;;;;;;;41.30;37.33;;;8.90;95.20;;;;;;5005001;28;20492;-82
2021/06/01 02:59:08;;;;;;;15.17;10.73;;;8.90;95.20;;;;;;4996884;28;20230;-81
2021/06/01 03:01:36;;;;;;;17.67;13.97;;;8.90;95.30;;;;;;5000090;28;20276;-82
2021/06/01 03:04:07;;;;;;;17.63;11.63;;;9.00;95.40;;;;;;5008029;28;20422;-82
2021/06/01 03:06:36;;;;;;;14.70;9.77;;;9.10;96.60;;;;;;5001119;28;20207;-82
2021/06/01 03:09:05;;;;;;;16.47;10.80;;;9.20;97.00;;;;;;5017813;28;20252;-81
2021/06/01 03:11:35;;;;;;;16.57;11.17;;;9.30;97.30;;;;;;5031419;28;20209;-82
2021/06/01 03:14:04;;;;;;;17.43;10.40;;;9.40;97.60;;;;;;5024505;28;20268;-81
2021/06/01 03:16:31;;;;;;;17.90;10.90;;;9.50;97.90;;;;;;5007350;28;20232;-83
2021/06/01 03:18:59;;;;;;;19.03;10.53;;;9.60;98.00;;;;;;5018676;28;20206;-81
2021/06/01 03:21:27;;;;;;;15.57;11.40;;;9.60;98.10;;;;;;5010297;28;20203;-82
2021/06/01 03:23:55;;;;;;;17.90;10.87;;;9.70;98.10;;;;;;5005945;28;20203;-81
2021/06/01 03:26:23;;;;;;;14.37;10.70;;;9.80;98.00;;;;;;5010259;28;20207;-81
2021/06/01 03:28:52;;;;;;;15.03;10.37;;;9.80;98.10;;;;;;5007752;28;20272;-83
2021/06/01 03:31:20;;;;;;;17.80;10.80;;;9.90;98.10;;;;;;5005267;28;20306;-81
2021/06/01 03:33:51;;;;;;;18.30;11.97;;;10.00;97.80;;;;;;4995548;28;20296;-83
2021/06/01 03:36:24;;;;;;;16.00;10.43;;;10.10;97.30;;;;;;5000452;28;20980;-81
2021/06/01 03:38:53;;;;;;;20.00;10.57;;;10.20;97.10;;;;;;4997347;28;20645;-82
2021/06/01 03:41:21;;;;;;;17.23;11.00;;;10.20;96.60;;;;;;5000548;28;20287;-82
2021/06/01 03:43:48;;;;;;;19.60;11.13;;;10.30;96.60;;;;;;4995122;28;20242;-83
2021/06/01 03:46:18;;;;;;;18.90;11.27;;;10.40;96.50;;;;;;4998604;28;20234;-81
2021/06/01 03:48:46;;;;;;;20.23;11.37;;;10.40;95.80;;;;;;5003732;28;20247;-84
2021/06/01 03:51:13;;;;;;;14.77;10.27;;;10.50;96.20;;;;;;5003039;28;20762;-81
2021/06/01 03:53:42;;;;;;;18.90;10.23;;;10.50;96.10;;;;;;5002053;28;20207;-82
2021/06/01 03:56:09;;;;;;;16.03;10.53;;;10.60;96.20;;;;;;4998571;28;20596;-82
2021/06/01 03:58:37;;;;;;;15.53;10.37;;;10.80;96.10;;;;;;4997178;28;20313;-83
2021/06/01 04:01:06;;;;;;;17.57;10.27;;;10.80;95.60;;;;;;4994556;28;20740;-84
2021/06/01 04:03:40;;;;;;;18.07;10.50;;;10.90;95.50;;;;;;4992050;28;20213;-82
2021/06/01 04:06:09;;;;;;;20.93;10.77;;;11.00;94.60;;;;;;4996492;28;20300;-82
2021/06/01 04:08:37;;;;;;;16.27;10.23;;;11.10;94.70;;;;;;5001519;28;20229;-82
2021/06/01 04:11:05;;;;;;;16.20;9.83;;;11.30;93.40;;;;;;5020396;28;21060;-82
2021/06/01 04:13:33;;;;;;;15.83;10.57;;;11.50;93.40;;;;;;5022617;28;20950;-82
2021/06/01 04:16:01;;;;;;;15.93;10.33;;;11.60;92.90;;;;;;5012650;28;20205;-82
2021/06/01 04:18:29;;;;;;;18.73;10.83;;;11.80;92.50;;;;;;5000159;28;20217;-81
2021/06/01 04:21:00;;;;;;;14.13;10.43;;;11.90;92.20;;;;;;4995649;28;20201;-82
2021/06/01 04:23:28;;;;;;;16.40;10.30;;;12.10;91.90;;;;;;4995431;28;20214;-83
2021/06/01 04:25:56;;;;;;;13.27;10.27;;;12.30;91.60;;;;;;5006811;28;20215;-83
2021/06/01 04:28:24;;;;;;;15.40;10.47;;;12.30;90.80;;;;;;5003142;28;20317;-81
2021/06/01 04:30:51;;;;;;;14.43;10.60;;;12.40;90.80;;;;;;5000534;28;20258;-83
2021/06/01 04:33:19;;;;;;;15.43;10.10;;;12.40;90.10;;;;;;4997156;28;20379;-82
2021/06/01 04:35:48;;;;;;;16.17;11.03;;;12.50;90.20;;;;;;4999943;28;20249;-82
2021/06/01 04:38:17;;;;;;;18.53;11.53;;;12.60;90.00;;;;;;5000907;28;20311;-83
2021/06/01 04:40:45;;;;;;;16.83;10.90;;;12.70;90.10;;;;;;5000628;28;20226;-82
2021/06/01 04:43:13;;;;;;;16.43;12.10;;;12.80;90.00;;;;;;4999141;28;20199;-82
2021/06/01 04:45:41;;;;;;;15.57;11.57;;;12.90;89.20;;;;;;5000939;28;21311;-82
2021/06/01 04:48:09;;;;;;;17.60;10.73;;;13.10;86.30;;;;;;4996805;28;20293;-83
2021/06/01 04:50:38;;;;;;;15.53;11.30;;;13.20;85.60;;;;;;4999786;28;20669;-82
2021/06/01 04:53:06;;;;;;;79.73;42.20;;;13.40;85.70;;;;;;4998779;28;20215;-82
2021/06/01 04:55:35;;;;;;;20.10;11.63;;;13.50;84.70;;;;;;5006264;28;20255;-82
2021/06/01 05:02:37;;;;;;;17.63;11.70;;;13.70;82.70;;;;;;5002632;28;20226;-84
2021/06/01 05:05:07;;;;;;;22.30;11.97;;;13.80;82.50;;;;;;5001278;28;20585;-83
2021/06/01 05:07:35;;;;;;;15.97;11.43;;;13.90;82.30;;;;;;5006093;28;20200;-84
2021/06/01 05:10:04;;;;;;;17.23;12.27;;;13.90;82.10;;;;;;4994363;28;20238;-82
2021/06/01 05:12:33;;;;;;;14.20;11.10;;;14.00;82.30;;;;;;4997909;28;20708;-83
2021/06/01 05:15:02;;;;;;;17.17;10.93;;;14.10;82.40;;;;;;4996915;28;20199;-81
2021/06/01 05:17:29;;;;;;;18.07;12.53;;;14.20;82.80;;;;;;5012933;28;20187;-86
2021/06/01 05:19:58;;;;;;;17.60;11.90;;;14.30;83.00;;;;;;5009106;28;20204;-84
2021/06/01 05:22:26;;;;;;;18.30;12.00;;;14.20;84.50;;;;;;4998142;28;20211;-83
2021/06/01 05:24:53;;;;;;;23.77;13.17;;;14.10;86.50;;;;;;5007258;28;20517;-82
2021/06/01 05:27:21;;;;;;;17.07;12.60;;;14.00;86.30;;;;;;5012805;28;20208;-83
2021/06/01 05:29:54;;;;;;;17.93;12.20;;;14.10;86.40;;;;;;5005788;28;21110;-82
2021/06/01 05:35:18;;;;;;;16.90;12.23;;;14.40;86.20;;;;;;5000668;28;20215;-84
2021/06/01 05:37:46;;;;;;;14.50;11.50;;;14.60;85.60;;;;;;4999780;28;20195;-82
2021/06/01 05:40:15;;;;;;;16.03;11.67;;;14.60;85.40;;;;;;4996900;28;20211;-85
2021/06/01 05:42:43;;;;;;;17.40;11.93;;;14.60;84.50;;;;;;4995921;28;20542;-81
2021/06/01 05:45:13;;;;;;;20.50;11.90;;;14.80;83.70;;;;;;4996793;28;20203;-82
2021/06/01 05:47:41;;;;;;;15.17;12.30;;;15.00;83.10;;;;;;5001171;28;20237;-81
2021/06/01 05:50:10;;;;;;;16.40;12.50;;;15.10;82.20;;;;;;4998006;28;20227;-83
2021/06/01 05:52:38;;;;;;;19.47;12.03;;;15.30;81.30;;;;;;4997650;28;20218;-81
2021/06/01 05:55:08;;;;;;;16.00;12.60;;;15.40;81.20;;;;;;4997366;28;20229;-81
2021/06/01 05:57:36;;;;;;;18.33;12.47;;;15.30;80.50;;;;;;5010616;28;20183;-83
2021/06/01 06:00:05;;;;;;;16.43;11.63;;;15.40;80.10;;;;;;5029489;28;20203;-83
2021/06/01 06:02:36;;;;;;;14.93;11.47;;;15.40;80.00;;;;;;5019563;28;20254;-83
2021/06/01 06:05:05;;;;;;;16.47;12.20;;;15.40;80.10;;;;;;5006020;28;20195;-85
2021/06/01 06:07:34;;;;;;;14.57;11.20;;;15.40;80.00;;;;;;5014015;28;20202;-84
2021/06/01 06:10:03;;;;;;;17.30;11.60;;;15.50;79.70;;;;;;5001775;28;20218;-83
2021/06/01 06:12:31;;;;;;;13.60;11.00;;;15.60;79.90;;;;;;4995828;28;20271;-85
2021/06/01 06:14:59;;;;;;;13.07;10.70;;;15.70;79.30;;;;;;4990482;28;20262;-85
2021/06/01 06:17:40;;;;;;;17.20;11.57;;;15.70;79.40;;;;;;4997908;28;20230;-85
2021/06/01 06:20:09;;;;;;;17.57;11.37;;;15.80;79.30;;;;;;4997891;28;20214;-85
2021/06/01 06:22:37;;;;;;;15.67;10.73;;;16.10;79.30;;;;;;5004276;28;20215;-85
2021/06/01 06:25:07;;;;;;;16.07;10.53;;;16.20;78.90;;;;;;5015960;28;20221;-86
2021/06/01 06:27:36;;;;;;;15.80;10.87;;;16.20;78.70;;;;;;5010428;28;20454;-84
2021/06/01 06:30:07;;;;;;;18.63;11.40;;;16.40;78.80;;;;;;5001196;28;20564;-84
2021/06/01 06:32:37;;;;;;;14.50;10.77;;;16.70;79.00;;;;;;5006249;28;20201;-85
2021/06/01 06:35:07;;;;;;;16.17;11.17;;;17.10;78.90;;;;;;5015256;28;20188;-84
2021/06/01 06:37:36;;;;;;;16.93;11.27;;;17.30;78.60;;;;;;5013733;28;20203;-83
2021/06/01 06:40:07;;;;;;;13.27;10.43;;;17.40;78.30;;;;;;5000663;28;20182;-84
2021/06/01 06:42:36;;;;;;;18.67;11.00;;;17.60;78.10;;;;;;5005728;28;20204;-85
2021/06/01 06:45:06;;;;;;;18.13;10.87;;;17.70;77.10;;;;;;5011251;28;20635;-84
2021/06/01 06:50:34;;;;;;;17.07;9.73;;;17.70;76.80;;;;;;5001572;28;20237;-85
2021/06/01 06:53:05;;;;;;;16.17;9.93;;;17.90;76.40;;;;;;5009881;28;20305;-85
2021/06/01 06:55:34;;;;;;;13.33;9.57;;;17.90;76.00;;;;;;5006078;28;20207;-83
2021/06/01 06:58:03;;;;;;;16.10;9.97;;;18.10;76.10;;;;;;4985960;28;20284;-85
2021/06/01 07:00:31;;;;;;;13.80;9.67;;;18.00;75.90;;;;;;5005527;28;20206;-87
2021/06/01 07:03:01;;;;;;;13.70;9.83;;;17.90;75.80;;;;;;5003631;28;20512;-83
2021/06/01 07:05:30;;;;;;;13.13;9.40;;;18.10;76.30;;;;;;5007783;28;20211;-85
2021/06/01 07:07:59;;;;;;;14.43;9.30;;;18.40;76.40;;;;;;5015026;28;20199;-84
2021/06/01 07:10:27;;;;;;;14.03;9.57;;;18.40;75.10;;;;;;5017715;28;20221;-84
2021/06/01 07:13:02;;;;;;;16.80;9.40;;;18.60;75.00;;;;;;5008180;28;20508;-86
2021/06/01 07:15:45;;;;;;;14.53;9.23;;;18.70;74.90;;;;;;5006568;28;20214;-85
2021/06/01 07:18:15;;;;;;;11.83;8.57;;;18.90;74.50;;;;;;5006067;28;20465;-84
2021/06/01 07:20:44;;;;;;;13.40;9.00;;;19.00;74.50;;;;;;5013742;28;20272;-84
2021/06/01 07:23:13;;;;;;;12.93;8.43;;;19.20;74.60;;;;;;5011309;28;20219;-84
2021/06/01 07:25:42;;;;;;;11.73;8.53;;;19.30;74.30;;;;;;5009525;28;20214;-84
2021/06/01 07:28:15;;;;;;;13.17;8.70;;;19.50;73.90;;;;;;4983503;28;20211;-86
2021/06/01 07:30:43;;;;;;;13.37;8.57;;;19.80;74.10;;;;;;5002574;28;20223;-83
2021/06/01 07:33:12;;;;;;;12.03;7.90;;;20.00;74.30;;;;;;4996698;28;20206;-83
2021/06/01 07:35:41;;;;;;;13.00;7.87;;;20.20;73.00;;;;;;4997390;28;20342;-87
2021/06/01 07:38:12;;;;;;;8.68;7.18;;;20.30;72.70;;;;;;5003331;28;20438;-85
2021/06/01 07:40:41;;;;;;;12.32;8.38;;;20.40;72.10;;;;;;5002364;28;20302;-83
2021/06/01 07:43:09;;;;;;;10.43;6.90;;;20.30;71.20;;;;;;4998874;28;20203;-85
2021/06/01 07:45:37;;;;;;;12.20;7.10;;;20.40;71.20;;;;;;4999987;28;20468;-85
2021/06/01 07:48:06;;;;;;;8.93;6.25;;;20.50;71.30;;;;;;5013863;28;20269;-83
2021/06/01 07:50:34;;;;;;;6.40;5.25;;;20.50;70.10;;;;;;5000042;28;20452;-84
2021/06/01 07:53:04;;;;;;;6.75;4.18;;;20.20;67.50;;;;;;4991987;28;20198;-84
2021/06/01 07:55:32;;;;;;;6.27;4.97;;;19.80;65.80;;;;;;4992347;28;20207;-84
2021/06/01 07:58:00;;;;;;;8.20;4.97;;;19.50;66.00;;;;;;4998406;28;20219;-85
2021/06/01 08:00:29;;;;;;;8.67;4.90;;;19.20;65.60;;;;;;4990592;28;20591;-83
2021/06/01 08:02:57;;;;;;;9.43;5.50;;;18.90;66.70;;;;;;4986073;28;20646;-85
2021/06/01 08:05:27;;;;;;;9.13;5.23;;;18.90;66.50;;;;;;4972206;28;20748;-85
2021/06/01 08:07:56;;;;;;;7.27;4.07;;;18.90;67.00;;;;;;5004420;28;20300;-84
2021/06/01 08:10:28;;;;;;;7.33;5.13;;;18.90;66.90;;;;;;5008138;28;20215;-84
2021/06/01 08:12:56;;;;;;;8.67;5.10;;;19.00;66.80;;;;;;5012499;28;20266;-85
2021/06/01 08:15:25;;;;;;;6.63;4.50;;;19.40;66.80;;;;;;4999635;28;20207;-83
2021/06/01 08:17:55;;;;;;;5.77;4.60;;;19.20;65.90;;;;;;4984335;28;20213;-82
2021/06/01 08:20:34;;;;;;;7.40;4.37;;;19.20;65.60;;;;;;4985393;28;20210;-86
2021/06/01 08:23:03;;;;;;;8.70;5.00;;;19.10;64.90;;;;;;4984727;28;20215;-85
2021/06/01 08:25:32;;;;;;;7.07;4.70;;;18.70;65.90;;;;;;4982641;28;20199;-85
2021/06/01 08:28:00;;;;;;;7.03;4.37;;;18.80;66.10;;;;;;4987090;28;20200;-85
2021/06/01 08:30:30;;;;;;;8.20;4.90;;;18.70;66.20;;;;;;4985352;28;20339;-84
2021/06/01 08:32:58;;;;;;;7.17;4.53;;;18.90;67.70;;;;;;4984080;28;20217;-85
2021/06/01 08:35:27;;;;;;;9.70;5.30;;;19.20;67.60;;;;;;4984468;28;20213;-84
2021/06/01 08:37:57;;;;;;;5.43;4.17;;;19.60;68.50;;;;;;5006581;28;20714;-83
2021/06/01 08:40:26;;;;;;;6.53;4.47;;;19.80;64.60;;;;;;4991234;28;20199;-83
2021/06/01 08:42:57;;;;;;;6.60;4.70;;;20.00;65.70;;;;;;4979174;28;20208;-85
2021/06/01 08:45:25;;;;;;;11.03;5.40;;;20.20;65.70;;;;;;4984231;28;20507;-86
2021/06/01 08:47:56;;;;;;;6.80;4.43;;;20.10;65.20;;;;;;4984778;28;20427;-85
2021/06/01 08:50:24;;;;;;;7.00;4.67;;;20.20;65.20;;;;;;4991726;28;20219;-84
2021/06/01 08:52:53;;;;;;;7.27;4.43;;;20.20;65.50;;;;;;4991632;28;20508;-84
2021/06/01 08:55:21;;;;;;;5.93;3.90;;;20.40;64.60;;;;;;4998385;28;20635;-84
2021/06/01 08:57:50;;;;;;;3.67;3.33;;;20.70;64.30;;;;;;4984853;28;20213;-85
2021/06/01 09:00:20;;;;;;;4.40;3.00;;;21.10;63.60;;;;;;4995408;28;20488;-82
2021/06/01 09:03:05;;;;;;;5.40;3.75;;;21.40;62.30;;;;;;4980574;28;20234;-84
2021/06/01 09:05:34;;;;;;;5.47;3.90;;;21.50;60.00;;;;;;4984021;28;20283;-83
2021/06/01 09:08:05;;;;;;;5.55;3.38;;;21.50;59.20;;;;;;4987820;28;20391;-83
2021/06/01 09:21:46;;;;;;;5.10;3.03;;;20.40;59.60;;;;;;4995145;28;20203;-85
2021/06/01 09:24:15;;;;;;;4.90;3.57;;;20.30;60.20;;;;;;5002862;28;20265;-86
2021/06/01 09:26:52;;;;;;;5.63;3.43;;;20.20;60.20;;;;;;5010223;28;20274;-86
2021/06/01 09:29:21;;;;;;;7.47;3.63;;;20.30;60.30;;;;;;5016707;28;20218;-86
2021/06/01 09:32:12;;;;;;;3.73;2.70;;;20.10;58.10;;;;;;5011190;28;20622;-87
2021/06/01 09:34:45;;;;;;;3.30;3.00;;;19.90;56.90;;;;;;4992386;28;20288;-89
2021/06/01 09:37:23;;;;;;;4.57;3.47;;;19.70;57.40;;;;;;5000074;28;20345;-86
2021/06/01 09:40:11;;;;;;;4.50;2.87;;;19.70;58.50;;;;;;4994563;28;20668;-87
2021/06/01 09:42:41;;;;;;;5.73;2.53;;;19.60;56.80;;;;;;5010578;28;20791;-85
2021/06/01 09:45:13;;;;;;;5.37;3.17;;;19.50;56.60;;;;;;4991873;28;20440;-87
2021/06/01 09:47:54;;;;;;;3.73;2.50;;;19.40;55.90;;;;;;4996856;28;20568;-86
2021/06/01 09:50:38;;;;;;;5.43;3.27;;;19.40;57.20;;;;;;4998027;28;20763;-85
2021/06/01 09:53:08;;;;;;;2.97;2.63;;;19.30;56.50;;;;;;5010460;28;20223;-87
2021/06/01 09:55:44;;;;;;;6.00;2.77;;;19.30;56.20;;;;;;5013129;28;20190;-87
2021/06/01 09:58:15;;;;;;;4.33;2.80;;;19.30;57.70;;;;;;4998516;28;20221;-86
2021/06/01 10:00:47;;;;;;;5.93;3.30;;;19.40;56.70;;;;;;5015501;28;20213;-87
2021/06/01 10:03:18;;;;;;;8.30;2.90;;;19.40;55.70;;;;;;5014102;28;20198;-85
2021/06/01 10:05:49;;;;;;;9.00;3.00;;;19.60;57.20;;;;;;4999723;28;20218;-86
2021/06/01 10:08:19;;;;;;;5.23;2.80;;;19.70;57.90;;;;;;4999093;28;20203;-86
2021/06/01 10:10:52;;;;;;;5.43;2.77;;;20.00;57.60;;;;;;4989520;28;20231;-86
2021/06/01 10:13:21;;;;;;;3.93;2.50;;;20.20;54.80;;;;;;5012439;28;20199;-86
2021/06/01 10:15:54;;;;;;;6.80;2.43;;;20.40;54.20;;;;;;5010706;28;20263;-87
2021/06/01 10:18:29;;;;;;;2.87;2.30;;;20.50;52.80;;;;;;5016833;28;20518;-87
2021/06/01 10:20:59;;;;;;;3.30;2.30;;;20.50;52.30;;;;;;5015455;28;20268;-87
2021/06/01 10:23:30;;;;;;;2.40;2.20;;;20.40;52.30;;;;;;4997327;28;20469;-88
2021/06/01 10:26:03;;;;;;;2.22;1.95;;;20.60;52.70;;;;;;5012064;28;20252;-87
2021/06/01 10:28:34;;;;;;;4.60;2.53;;;20.80;52.70;;;;;;4996705;28;20211;-85
2021/06/01 10:31:08;;;;;;;3.40;2.72;;;21.00;54.30;;;;;;5013848;28;20211;-85
2021/06/01 10:33:42;;;;;;;3.20;2.60;;;21.00;53.60;;;;;;5018187;28;20203;-84
2021/06/01 10:42:25;;;;;;;4.18;3.08;;;20.90;54.30;;;;;;5012322;28;20211;-85
2021/06/01 10:44:54;;;;;;;5.45;3.72;;;20.80;58.10;;;;;;4985569;28;20805;-85
2021/06/01 10:50:39;;;;;;;8.75;3.42;;;20.70;57.10;;;;;;5011418;28;20494;-85
2021/06/01 10:53:13;;;;;;;5.57;3.40;;;20.60;57.80;;;;;;5007011;28;20319;-84
2021/06/01 10:55:59;;;;;;;5.97;3.30;;;20.80;58.60;;;;;;5002690;28;20207;-85
2021/06/01 10:59:13;;;;;;;8.55;3.20;;;20.50;57.30;;;;;;5004717;28;20211;-86
2021/06/01 11:01:56;;;;;;;5.10;3.60;;;20.60;57.70;;;;;;5007661;28;20715;-85
2021/06/01 11:04:29;;;;;;;3.80;3.00;;;20.50;59.10;;;;;;5006151;28;20231;-84
2021/06/01 11:07:15;;;;;;;10.43;3.60;;;20.40;59.40;;;;;;5008828;28;20199;-84
2021/06/01 11:09:49;;;;;;;9.15;4.00;;;20.40;60.60;;;;;;5005632;28;20207;-86
2021/06/01 11:12:51;;;;;;;6.17;3.90;;;20.50;60.80;;;;;;4997637;28;20760;-86
2021/06/01 11:15:29;;;;;;;6.22;3.60;;;20.40;60.50;;;;;;5012252;28;20315;-85
2021/06/01 11:18:17;;;;;;;5.27;3.77;;;20.60;60.20;;;;;;5014834;28;20191;-85
2021/06/01 11:21:02;;;;;;;5.63;3.60;;;20.70;60.60;;;;;;5017795;28;20200;-84
2021/06/01 11:36:01;;;;;;;5.80;3.45;;;20.30;60.90;;;;;;4998829;28;20570;-85
2021/06/01 11:38:39;;;;;;;4.55;3.90;;;20.20;61.00;;;;;;4997735;28;20208;-85
2021/06/01 11:41:24;;;;;;;3.90;3.50;;;20.00;61.20;;;;;;4998002;28;20200;-86
2021/06/01 11:43:56;;;;;;;3.57;3.10;;;20.00;60.80;;;;;;4996662;28;20745;-87
2021/06/01 11:46:33;;;;;;;4.43;3.20;;;19.90;60.40;;;;;;4992609;28;20204;-85
2021/06/01 11:51:51;;;;;;;5.17;3.23;;;19.90;61.30;;;;;;5017065;28;20237;-85
2021/06/01 11:54:19;;;;;;;4.53;3.57;;;19.90;60.70;;;;;;4993473;28;20222;-85
2021/06/01 11:57:07;;;;;;;3.90;3.50;;;19.90;60.60;;;;;;5001879;28;20215;-86
2021/06/01 12:02:49;;;;;;;4.50;3.10;;;20.10;60.30;;;;;;4994878;28;20481;-85
2021/06/01 12:05:44;;;;;;;6.80;3.20;;;20.10;59.20;;;;;;5065056;23;20548;-86
2021/06/01 12:11:20;;;;;;;3.70;3.40;;;20.30;59.20;;;;;;4968062;28;20204;-86
2021/06/01 12:13:59;;;;;;;6.17;3.30;;;20.20;58.40;;;;;;4991228;28;20267;-86
2021/06/01 12:19:16;;;;;;;4.50;3.03;;;20.10;58.60;;;;;;4987719;28;20913;-87
2021/06/01 12:21:50;;;;;;;4.97;3.33;;;20.00;59.30;;;;;;4992058;28;20297;-84
2021/06/01 12:24:22;;;;;;;6.20;3.17;;;20.00;59.80;;;;;;4997385;28;20206;-86
2021/06/01 12:26:59;;;;;;;4.83;2.90;;;20.10;58.20;;;;;;5000177;28;20227;-85
2021/06/01 12:32:23;;;;;;;5.50;3.00;;;20.60;58.10;;;;;;5001227;28;20344;-88
2021/06/01 12:34:59;;;;;;;6.38;3.05;;;20.80;59.00;;;;;;5012705;28;20215;-82
2021/06/01 12:46:16;;;;;;;5.07;3.38;;;21.70;54.70;;;;;;4991237;28;20290;-86
2021/06/01 13:20:55;;;;;;;8.63;3.38;;;21.60;53.90;;;;;;5003907;28;20217;-84
2021/06/01 13:23:55;;;;;;;3.45;2.95;;;21.80;54.30;;;;;;5007638;28;20215;-85
2021/06/01 13:45:57;;;;;;;3.35;2.90;;;22.80;51.30;;;;;;4936925;29;20301;-86
2021/06/01 13:46:37;;;;;;;4.28;3.03;;;22.50;52.40;;;;;;4983692;28;20214;-86
2021/06/01 13:49:12;;;;;;;3.13;2.80;;;22.30;52.00;;;;;;5018443;28;20199;-85
2021/06/01 13:57:37;;;;;;;4.43;2.78;;;21.70;54.50;;;;;;4994362;28;20214;-84
2021/06/01 14:00:30;;;;;;;3.67;2.90;;;21.60;52.80;;;;;;5016316;28;20187;-86
2021/06/01 14:31:29;;;;;;;2.88;2.58;;;22.90;50.90;;;;;;5013994;28;20216;-85
2021/06/01 14:54:36;;;;;;;3.80;2.53;;;22.70;50.80;;;;;;4967444;28;20283;-86
2021/06/01 15:28:50;;;;;;;4.13;3.10;;;20.60;53.90;;;;;;4962403;28;20267;-84
2021/06/01 15:31:37;;;;;;;3.67;3.05;;;20.80;54.10;;;;;;5010961;28;20206;-82
2021/06/01 15:48:19;;;;;;;4.53;2.70;;;22.00;52.40;;;;;;5012315;28;20203;-84
2021/06/01 15:50:56;;;;;;;3.08;2.63;;;22.30;53.20;;;;;;5009780;28;20210;-83
2021/06/01 15:53:38;;;;;;;3.30;3.00;;;22.90;52.40;;;;;;5002780;28;20222;-82
2021/06/01 16:21:25;;;;;;;6.50;3.00;;;19.90;53.60;;;;;;5021336;28;20429;-83
2021/06/01 16:29:47;;;;;;;4.50;3.13;;;19.90;53.40;;;;;;5024129;28;20222;-84
2021/06/01 16:43:40;;;;;;;2.73;2.40;;;19.90;52.20;;;;;;5015989;28;20522;-83
2021/06/01 17:03:13;;;;;;;7.77;3.10;;;19.80;51.80;;;;;;5030768;28;20194;-84
2021/06/01 17:05:45;;;;;;;2.70;2.50;;;19.70;52.20;;;;;;5015908;28;20531;-82
2021/06/01 17:08:39;;;;;;;3.53;2.60;;;19.70;52.20;;;;;;5016025;28;20310;-85
2021/06/01 17:11:14;;;;;;;4.93;2.53;;;19.60;52.70;;;;;;5017482;28;20666;-85
2021/06/01 17:13:50;;;;;;;2.80;2.50;;;19.50;52.50;;;;;;5018678;28;20344;-82
2021/06/01 17:16:27;;;;;;;3.77;2.87;;;19.50;52.80;;;;;;5022019;28;20267;-85
2021/06/01 17:35:57;;;;;;;4.30;2.53;;;18.90;53.20;;;;;;5025731;28;20210;-84
2021/06/01 17:38:26;;;;;;;5.00;2.40;;;18.80;52.90;;;;;;5031355;28;20240;-85
2021/06/01 17:41:00;;;;;;;4.23;2.67;;;18.70;53.10;;;;;;5028369;28;20214;-85
2021/06/01 17:43:32;;;;;;;3.93;3.03;;;18.70;52.90;;;;;;5007769;28;20206;-82
2021/06/01 17:46:03;;;;;;;4.83;3.70;;;18.70;54.70;;;;;;5025744;28;20192;-84
2021/06/01 17:48:42;;;;;;;6.77;3.47;;;18.40;56.30;;;;;;5006070;28;20272;-86
2021/06/01 17:51:13;;;;;;;8.63;5.00;;;18.40;56.30;;;;;;5023118;28;20197;-85
2021/06/01 17:53:47;;;;;;;12.17;5.37;;;18.30;57.80;;;;;;5023177;28;20439;-86
2021/06/01 17:56:20;;;;;;;17.43;9.40;;;18.30;59.00;;;;;;5013008;28;20326;-84
2021/06/01 17:58:52;;;;;;;15.87;8.00;;;18.10;60.40;;;;;;5017856;28;20534;-85